createdAt,value
2022-11-14T00:00:58.897Z,40.40
2022-11-14T00:03:25.420Z,42.83
2022-11-14T00:05:51.907Z,41.22
2022-11-14T00:08:25.219Z,43.30
2022-11-14T00:10:52.116Z,39.67
2022-11-14T00:13:20.085Z,40.88
2022-11-14T00:15:50.527Z,40.10
2022-11-14T00:18:17.622Z,39.08
2022-11-14T00:20:47.264Z,41.55
2022-11-14T00:23:13.782Z,42.05
2022-11-14T00:25:40.356Z,39.80
2022-11-14T00:28:07.007Z,39.13
2022-11-14T00:30:33.477Z,43.38
2022-11-14T00:32:59.895Z,38.58
2022-11-14T00:35:26.501Z,41.05
2022-11-14T00:37:53.017Z,42.28
2022-11-14T00:40:19.488Z,41.38
2022-11-14T00:42:46.046Z,41.70
2022-11-14T00:45:12.548Z,40.17
2022-11-14T00:47:39.136Z,40.58
2022-11-14T00:50:06.369Z,40.92
2022-11-14T00:52:32.851Z,39.10
2022-11-14T00:54:59.251Z,42.03
2022-11-14T00:57:25.751Z,42.85
2022-11-14T00:59:55.659Z,40.35
2022-11-14T01:02:22.716Z,41.13
2022-11-14T01:04:49.232Z,39.03
2022-11-14T01:07:15.655Z,40.28
2022-11-14T01:09:42.152Z,40.55
2022-11-14T01:12:08.753Z,42.00
2022-11-14T01:14:35.213Z,44.42
2022-11-14T01:17:01.734Z,39.42
2022-11-14T01:19:28.222Z,40.42
2022-11-14T01:21:54.831Z,41.80
2022-11-14T01:24:21.285Z,44.88
2022-11-14T01:26:47.826Z,40.47
2022-11-14T01:29:14.322Z,42.00
2022-11-14T01:31:42.194Z,38.90
2022-11-14T01:34:08.725Z,40.50
2022-11-14T01:36:35.273Z,41.20
2022-11-14T01:39:01.770Z,38.42
2022-11-14T01:41:28.257Z,39.47
2022-11-14T01:43:54.702Z,38.40
2022-11-14T01:46:42.087Z,41.33
2022-11-14T01:49:20.502Z,36.58
2022-11-14T01:51:51.323Z,40.85
2022-11-14T01:54:26.526Z,38.88
2022-11-14T01:56:57.422Z,35.22
2022-11-14T01:59:31.150Z,39.78
2022-11-14T02:02:04.049Z,37.22
2022-11-14T02:04:38.096Z,37.53
2022-11-14T02:07:06.335Z,38.13
2022-11-14T02:09:37.271Z,40.65
2022-11-14T02:12:07.196Z,36.45
2022-11-14T02:14:35.969Z,33.95
2022-11-14T02:17:28.045Z,38.33
2022-11-14T02:20:14.332Z,36.67
2022-11-14T02:22:42.645Z,34.67
2022-11-14T02:25:11.448Z,35.42
2022-11-14T02:27:39.436Z,37.63
2022-11-14T02:30:12.767Z,33.60
2022-11-14T02:33:08.945Z,35.33
2022-11-14T02:35:26.050Z,32.80
2022-11-14T02:37:52.535Z,35.45
2022-11-14T02:40:19.137Z,33.22
2022-11-14T02:42:45.761Z,34.25
2022-11-14T02:45:12.792Z,34.67
2022-11-14T02:47:39.257Z,31.30
2022-11-14T02:50:06.245Z,32.53
2022-11-14T02:52:32.782Z,33.38
2022-11-14T02:54:59.374Z,35.13
2022-11-14T02:57:25.886Z,32.53
2022-11-14T02:59:52.405Z,34.05
2022-11-14T03:02:18.968Z,35.42
2022-11-14T03:04:45.574Z,32.00
2022-11-14T03:07:12.278Z,32.33
2022-11-14T03:09:38.811Z,35.55
2022-11-14T03:12:05.881Z,32.38
2022-11-14T03:14:32.370Z,32.22
2022-11-14T03:16:58.993Z,37.00
2022-11-14T03:19:25.418Z,33.58
2022-11-14T03:21:51.947Z,32.45
2022-11-14T03:24:18.491Z,34.20
2022-11-14T03:26:45.330Z,32.38
2022-11-14T03:29:11.780Z,32.28
2022-11-14T03:31:38.315Z,34.85
2022-11-14T03:34:04.809Z,32.15
2022-11-14T03:36:31.395Z,34.70
2022-11-14T03:38:57.904Z,33.15
2022-11-14T03:41:24.411Z,35.65
2022-11-14T03:43:50.920Z,33.05
2022-11-14T03:46:17.398Z,36.40
2022-11-14T03:48:43.896Z,33.28
2022-11-14T03:51:10.421Z,33.05
2022-11-14T03:53:36.945Z,33.42
2022-11-14T03:56:03.557Z,33.15
2022-11-14T03:58:30.515Z,32.78
2022-11-14T04:00:57.527Z,31.15
2022-11-14T04:03:24.609Z,28.30
2022-11-14T04:09:33.596Z,32.28
2022-11-14T04:12:00.101Z,32.13
2022-11-14T04:14:26.570Z,29.63
2022-11-14T04:16:53.136Z,31.45
2022-11-14T04:19:19.673Z,29.63
2022-11-14T04:21:46.196Z,30.33
2022-11-14T04:24:12.705Z,31.75
2022-11-14T04:26:39.305Z,31.65
2022-11-14T04:29:05.739Z,31.23
2022-11-14T04:31:32.345Z,29.30
2022-11-14T04:33:58.774Z,30.38
2022-11-14T04:36:25.299Z,30.73
2022-11-14T04:38:51.906Z,30.15
2022-11-14T04:41:18.486Z,30.63
2022-11-14T04:43:50.485Z,29.08
2022-11-14T04:46:17.498Z,32.38
2022-11-14T04:48:44.014Z,29.48
2022-11-14T04:51:10.550Z,29.65
2022-11-14T04:53:37.094Z,28.30
2022-11-14T04:56:03.790Z,28.90
2022-11-14T04:58:30.459Z,32.00
2022-11-14T05:01:00.125Z,26.77
2022-11-14T05:03:26.673Z,29.70
2022-11-14T05:05:53.283Z,31.20
2022-11-14T05:08:19.744Z,32.40
2022-11-14T05:10:46.452Z,32.35
2022-11-14T05:13:13.116Z,30.08
2022-11-14T05:15:39.624Z,32.67
2022-11-14T05:18:06.108Z,31.08
2022-11-14T05:20:32.624Z,29.35
2022-11-14T05:22:59.298Z,32.53
2022-11-14T05:25:25.811Z,27.35
2022-11-14T05:27:52.347Z,29.13
2022-11-14T05:30:19.029Z,30.80
2022-11-14T05:32:45.888Z,26.73
2022-11-14T05:35:12.591Z,28.58
2022-11-14T05:37:39.259Z,31.30
2022-11-14T05:40:06.600Z,29.23
2022-11-14T05:42:33.173Z,32.20
2022-11-14T05:44:59.713Z,29.55
2022-11-14T05:47:26.228Z,31.23
2022-11-14T05:49:52.808Z,26.90
2022-11-14T05:52:19.286Z,27.05
2022-11-14T05:54:45.819Z,29.67
2022-11-14T05:57:12.275Z,30.63
2022-11-14T05:59:38.799Z,28.58
2022-11-14T06:02:07.192Z,29.52
2022-11-14T06:04:33.745Z,28.40
2022-11-14T06:07:00.318Z,28.70
2022-11-14T06:09:26.884Z,27.73
2022-11-14T06:11:53.256Z,31.10
2022-11-14T06:14:19.793Z,25.75
2022-11-14T06:16:46.332Z,27.35
2022-11-14T06:19:12.941Z,28.80
2022-11-14T06:21:39.467Z,32.38
2022-11-14T06:24:06.354Z,27.80
2022-11-14T06:26:32.892Z,28.02
2022-11-14T06:29:00.721Z,29.58
2022-11-14T06:31:27.339Z,28.42
2022-11-14T06:33:53.986Z,28.50
2022-11-14T06:36:20.545Z,26.83
2022-11-14T06:38:47.092Z,28.52
2022-11-14T06:41:18.969Z,33.05
2022-11-14T06:43:49.537Z,26.13
2022-11-14T06:46:18.881Z,27.50
2022-11-14T06:48:46.816Z,28.13
2022-11-14T06:51:15.027Z,30.85
2022-11-14T06:53:42.838Z,28.08
2022-11-14T06:56:11.598Z,28.38
2022-11-14T06:58:43.938Z,26.73
2022-11-14T07:01:15.005Z,27.20
2022-11-14T07:03:42.867Z,26.23
2022-11-14T07:06:20.326Z,26.83
2022-11-14T07:08:47.024Z,27.40
2022-11-14T07:11:26.143Z,26.20
2022-11-14T07:13:53.623Z,26.77
2022-11-14T07:16:21.360Z,25.23
2022-11-14T07:18:47.859Z,27.20
2022-11-14T07:21:14.512Z,24.05
2022-11-14T07:23:42.053Z,29.52
2022-11-14T07:26:10.707Z,27.08
2022-11-14T07:28:41.363Z,25.90
2022-11-14T07:31:13.179Z,25.00
2022-11-14T07:33:40.937Z,24.75
2022-11-14T07:36:08.728Z,25.50
2022-11-14T07:38:37.066Z,24.33
2022-11-14T07:41:11.834Z,26.27
2022-11-14T07:43:38.516Z,27.60
2022-11-14T07:46:16.628Z,27.90
2022-11-14T07:48:43.809Z,25.02
2022-11-14T07:51:15.476Z,24.85
2022-11-14T07:53:42.005Z,27.35
2022-11-14T07:56:09.940Z,29.42
2022-11-14T07:58:37.824Z,28.17
2022-11-14T08:01:06.030Z,24.60
2022-11-14T08:03:33.448Z,27.25
2022-11-14T08:06:04.815Z,25.35
2022-11-14T08:08:32.024Z,26.98
2022-11-14T08:10:59.961Z,27.48
2022-11-14T08:13:33.146Z,24.80
2022-11-14T08:18:35.885Z,21.55
2022-11-14T08:21:06.035Z,26.60
2022-11-14T08:23:32.518Z,28.00
2022-11-14T08:25:59.963Z,26.45
2022-11-14T08:28:26.541Z,25.25
2022-11-14T08:30:53.157Z,26.77
2022-11-14T08:33:19.646Z,26.27
2022-11-14T08:35:46.182Z,26.80
2022-11-14T08:38:12.726Z,27.98
2022-11-14T08:40:40.002Z,28.15
2022-11-14T08:43:06.455Z,26.60
2022-11-14T08:45:32.993Z,28.48
2022-11-14T08:47:59.591Z,27.38
2022-11-14T08:50:26.094Z,26.25
2022-11-14T08:52:52.643Z,27.50
2022-11-14T08:55:20.488Z,25.55
2022-11-14T08:57:49.575Z,26.15
2022-11-14T09:00:17.237Z,26.35
2022-11-14T09:02:43.948Z,26.33
2022-11-14T09:05:11.157Z,25.92
2022-11-14T09:07:37.660Z,26.83
2022-11-14T09:10:07.182Z,24.50
2022-11-14T09:12:34.128Z,26.48
2022-11-14T09:15:00.590Z,24.77
2022-11-14T09:17:27.099Z,24.65
2022-11-14T09:19:54.074Z,26.58
2022-11-14T09:22:20.593Z,25.20
2022-11-14T09:24:47.794Z,25.95
2022-11-14T09:27:14.437Z,23.77
2022-11-14T09:29:40.915Z,26.40
2022-11-14T09:32:07.704Z,22.60
2022-11-14T09:34:34.172Z,28.48
2022-11-14T09:37:00.739Z,25.45
2022-11-14T09:39:27.244Z,25.42
2022-11-14T09:42:23.145Z,23.27
2022-11-14T09:44:56.789Z,23.58
2022-11-14T09:47:28.146Z,22.45
2022-11-14T09:50:02.974Z,24.55
2022-11-14T09:52:38.507Z,23.17
2022-11-14T09:55:30.013Z,22.48
2022-11-14T09:58:02.596Z,23.40
2022-11-14T10:00:51.758Z,20.40
2022-11-14T10:03:58.931Z,23.02
2022-11-14T10:06:35.701Z,18.85
2022-11-14T10:09:05.066Z,22.45
2022-11-14T10:11:49.824Z,21.40
2022-11-14T10:14:28.192Z,23.17
2022-11-14T10:17:12.120Z,19.48
2022-11-14T10:19:44.736Z,22.02
2022-11-14T10:22:48.503Z,22.48
2022-11-14T10:28:24.632Z,20.52
2022-11-14T10:31:03.290Z,18.73
2022-11-14T10:33:53.837Z,24.20
2022-11-14T10:36:41.700Z,21.65
2022-11-14T10:39:21.939Z,19.38
2022-11-14T10:42:03.173Z,20.20
2022-11-14T10:44:38.649Z,22.10
2022-11-14T10:47:10.697Z,20.38
2022-11-14T10:49:37.613Z,19.98
2022-11-14T10:52:14.745Z,22.63
2022-11-14T10:55:00.267Z,20.50
2022-11-14T10:57:28.708Z,19.15
2022-11-14T10:59:55.578Z,21.58
2022-11-14T11:02:23.143Z,19.63
2022-11-14T11:04:49.585Z,21.13
2022-11-14T11:07:41.783Z,19.77
2022-11-14T11:10:38.622Z,15.15
2022-11-14T11:13:05.561Z,16.92
2022-11-14T11:15:40.670Z,16.38
2022-11-14T11:18:30.355Z,17.05
2022-11-14T11:21:10.593Z,15.85
2022-11-14T11:23:54.664Z,14.60
2022-11-14T11:26:32.411Z,15.20
2022-11-14T11:29:11.055Z,15.80
2022-11-14T11:31:49.715Z,13.63
2022-11-14T11:34:22.642Z,13.23
2022-11-14T11:36:55.687Z,13.38
2022-11-14T11:39:29.698Z,13.15
2022-11-14T11:42:10.167Z,12.90
2022-11-14T11:44:44.218Z,11.55
2022-11-14T11:47:16.227Z,11.25
2022-11-14T11:49:54.221Z,12.13
2022-11-14T11:52:30.246Z,11.00
2022-11-14T11:55:08.900Z,9.90
2022-11-14T11:57:48.679Z,10.27
2022-11-14T12:00:18.553Z,9.43
2022-11-14T12:02:50.112Z,10.50
2022-11-14T12:05:24.863Z,9.77
2022-11-14T12:08:01.356Z,8.93
2022-11-14T12:10:32.240Z,9.65
2022-11-14T12:13:20.156Z,8.88
2022-11-14T12:16:13.206Z,8.40
2022-11-14T12:19:05.243Z,7.85
2022-11-14T12:21:58.851Z,7.95
2022-11-14T12:24:53.524Z,7.65
2022-11-14T12:27:23.266Z,8.20
2022-11-14T12:30:02.605Z,8.40
2022-11-14T12:32:34.144Z,9.27
2022-11-14T12:35:06.651Z,10.63
2022-11-14T12:37:36.192Z,9.40
2022-11-14T12:40:08.679Z,8.63
2022-11-14T12:42:35.794Z,8.45
2022-11-14T12:45:02.421Z,9.27
2022-11-14T12:47:29.280Z,9.80
2022-11-14T12:49:58.554Z,10.70
2022-11-14T12:52:48.781Z,12.05
2022-11-14T12:55:24.260Z,10.13
2022-11-14T12:58:17.233Z,11.48
2022-11-14T13:00:46.433Z,10.10
2022-11-14T13:03:28.080Z,10.38
2022-11-14T13:05:59.703Z,10.57
2022-11-14T13:11:50.264Z,12.48
2022-11-14T13:14:39.321Z,10.70
2022-11-14T13:17:44.002Z,10.90
2022-11-14T13:20:46.039Z,10.02
2022-11-14T13:23:27.803Z,11.25
2022-11-14T13:26:09.786Z,11.50
2022-11-14T13:28:36.374Z,13.38
2022-11-14T13:31:06.930Z,11.68
2022-11-14T13:33:53.263Z,10.82
2022-11-14T13:36:45.030Z,10.07
2022-11-14T13:39:30.171Z,11.95
2022-11-14T13:42:26.321Z,11.15
2022-11-14T13:45:02.816Z,10.13
2022-11-14T13:47:46.573Z,10.70
2022-11-14T13:50:26.588Z,9.45
2022-11-14T13:52:53.522Z,8.88
2022-11-14T13:55:32.451Z,9.45
2022-11-14T13:58:15.051Z,10.23
2022-11-14T14:01:29.095Z,9.35
2022-11-14T14:04:33.208Z,8.93
2022-11-14T14:07:19.700Z,12.68
2022-11-14T14:10:20.325Z,7.97
2022-11-14T14:12:49.752Z,8.05
2022-11-14T14:15:35.445Z,8.25
2022-11-14T14:18:26.613Z,10.30
2022-11-14T14:21:12.150Z,7.57
2022-11-14T14:24:31.063Z,7.85
2022-11-14T14:27:19.527Z,8.57
2022-11-14T14:29:59.774Z,11.80
2022-11-14T14:32:26.539Z,8.32
2022-11-14T14:34:56.966Z,9.05
2022-11-14T14:37:26.320Z,9.35
2022-11-14T14:39:56.918Z,8.25
2022-11-14T14:42:24.243Z,11.00
2022-11-14T14:44:51.091Z,11.13
2022-11-14T14:47:33.207Z,8.80
2022-11-14T14:50:06.312Z,11.57
2022-11-14T14:52:37.525Z,11.45
2022-11-14T14:55:08.584Z,9.95
2022-11-14T14:57:35.042Z,10.80
2022-11-14T15:00:25.839Z,11.02
2022-11-14T15:02:56.502Z,10.15
2022-11-14T15:05:28.363Z,9.68
2022-11-14T15:08:00.604Z,11.38
2022-11-14T15:10:30.018Z,10.33
2022-11-14T15:12:58.566Z,11.07
2022-11-14T15:15:26.506Z,10.50
2022-11-14T15:17:55.022Z,14.40
2022-11-14T15:20:25.673Z,11.68
2022-11-14T15:23:10.277Z,11.70
2022-11-14T15:25:37.666Z,13.45
2022-11-14T15:28:05.381Z,13.35
2022-11-14T15:30:34.884Z,11.30
2022-11-14T15:33:04.557Z,11.98
2022-11-14T15:35:38.214Z,11.00
2022-11-14T15:38:43.224Z,9.93
2022-11-14T15:41:18.987Z,10.77
2022-11-14T15:43:45.655Z,12.05
2022-11-14T15:46:48.035Z,11.52
2022-11-14T15:49:14.501Z,11.55
2022-11-14T15:51:47.247Z,13.38
2022-11-14T15:54:27.176Z,12.00
2022-11-14T15:56:55.767Z,12.25
2022-11-14T15:59:23.264Z,11.20
2022-11-14T16:01:54.492Z,12.52
2022-11-14T16:04:24.726Z,12.18
2022-11-14T16:06:51.242Z,11.90
2022-11-14T16:11:43.851Z,10.80
2022-11-14T16:14:10.418Z,14.05
2022-11-14T16:16:36.979Z,9.98
2022-11-14T16:19:04.067Z,10.45
2022-11-14T16:21:30.652Z,11.85
2022-11-14T16:23:57.963Z,11.93
2022-11-14T16:26:27.489Z,9.93
2022-11-14T16:28:54.312Z,11.55
2022-11-14T16:31:21.070Z,9.32
2022-11-14T16:33:47.566Z,12.25
2022-11-14T16:36:14.198Z,10.15
2022-11-14T16:38:40.735Z,11.52
2022-11-14T16:41:08.697Z,12.05
2022-11-14T16:43:35.657Z,11.95
2022-11-14T16:46:06.086Z,10.98
2022-11-14T16:48:32.802Z,10.35
2022-11-14T16:51:14.863Z,12.43
2022-11-14T16:53:55.274Z,10.55
2022-11-14T16:56:21.841Z,13.10
2022-11-14T16:58:53.032Z,11.52
2022-11-14T17:01:21.356Z,11.60
2022-11-14T17:03:48.139Z,11.85
2022-11-14T17:06:14.636Z,10.30
2022-11-14T17:08:41.194Z,11.02
2022-11-14T17:11:10.024Z,11.82
2022-11-14T17:13:37.833Z,11.40
2022-11-14T17:16:05.151Z,9.90
2022-11-14T17:18:38.167Z,9.95
2022-11-14T17:21:06.632Z,10.95
2022-11-14T17:23:33.493Z,14.07
2022-11-14T17:26:09.439Z,11.02
2022-11-14T17:28:38.494Z,11.27
2022-11-14T17:31:08.594Z,9.95
2022-11-14T17:33:35.953Z,12.70
2022-11-14T17:36:07.593Z,9.65
2022-11-14T17:38:36.269Z,10.52
2022-11-14T17:41:06.274Z,10.60
2022-11-14T17:43:38.702Z,12.68
2022-11-14T17:46:09.844Z,14.52
2022-11-14T17:48:40.743Z,11.25
2022-11-14T17:51:10.392Z,11.57
2022-11-14T17:53:37.470Z,11.13
2022-11-14T17:56:04.220Z,9.40
2022-11-14T17:58:32.229Z,12.80
2022-11-14T18:00:59.427Z,10.45
2022-11-14T18:03:27.181Z,10.57
2022-11-14T18:05:56.075Z,12.23
2022-11-14T18:08:22.675Z,8.77
2022-11-14T18:10:49.163Z,9.68
2022-11-14T18:13:15.641Z,11.65
2022-11-14T18:15:42.136Z,10.23
2022-11-14T18:18:08.704Z,10.13
2022-11-14T18:20:38.033Z,10.40
2022-11-14T18:23:04.536Z,10.25
2022-11-14T18:25:31.630Z,11.00
2022-11-14T18:27:58.194Z,9.93
2022-11-14T18:30:40.976Z,10.35
2022-11-14T18:33:08.457Z,10.95
2022-11-14T18:35:35.023Z,8.23
2022-11-14T18:38:01.452Z,11.57
2022-11-14T18:40:28.065Z,10.23
2022-11-14T18:42:54.617Z,10.73
2022-11-14T18:45:21.088Z,11.20
2022-11-14T18:47:47.585Z,8.75
2022-11-14T18:50:14.216Z,11.35
2022-11-14T18:52:40.685Z,10.10
2022-11-14T18:55:08.043Z,11.75
2022-11-14T18:57:34.583Z,8.65
2022-11-14T19:00:01.113Z,12.50
2022-11-14T19:02:27.700Z,10.15
2022-11-14T19:04:54.357Z,10.02
2022-11-14T19:07:20.944Z,12.25
2022-11-14T19:09:47.526Z,8.43
2022-11-14T19:12:22.014Z,8.68
2022-11-14T19:14:52.968Z,9.73
2022-11-14T19:17:22.656Z,9.15
2022-11-14T19:19:50.287Z,9.27
2022-11-14T19:22:17.177Z,9.82
2022-11-14T19:24:45.016Z,10.68
2022-11-14T19:27:12.135Z,11.05
2022-11-14T19:29:38.670Z,10.48
2022-11-14T19:32:05.832Z,9.20
2022-11-14T19:34:32.438Z,9.50
2022-11-14T19:37:00.713Z,9.90
2022-11-14T19:39:27.910Z,10.40
2022-11-14T19:41:54.528Z,9.85
2022-11-14T19:44:21.032Z,10.07
2022-11-14T19:46:48.329Z,8.80
2022-11-14T19:49:15.112Z,10.07
2022-11-14T19:51:41.730Z,9.32
2022-11-14T19:54:09.979Z,10.30
2022-11-14T19:56:37.217Z,10.35
2022-11-14T19:59:09.606Z,10.02
2022-11-14T20:01:41.619Z,10.57
2022-11-14T20:04:11.880Z,9.35
2022-11-14T20:06:39.245Z,9.38
2022-11-14T20:09:08.390Z,10.80
2022-11-14T20:11:35.230Z,11.57
2022-11-14T20:14:02.787Z,10.65
2022-11-14T20:16:31.635Z,10.60
2022-11-14T20:19:00.748Z,10.57
2022-11-14T20:21:30.530Z,9.80
2022-11-14T20:23:57.542Z,9.23
2022-11-14T20:26:24.502Z,9.73
2022-11-14T20:28:53.856Z,9.98
2022-11-14T20:31:25.360Z,12.73
2022-11-14T20:33:53.547Z,9.63
2022-11-14T20:36:24.055Z,7.93
2022-11-14T20:38:51.223Z,10.10
2022-11-14T20:41:18.743Z,10.02
2022-11-14T20:43:45.352Z,8.50
2022-11-14T20:46:17.125Z,11.65
2022-11-14T20:48:44.894Z,9.65
2022-11-14T20:51:13.840Z,10.05
2022-11-14T20:53:40.922Z,8.93
2022-11-14T20:56:08.680Z,9.25
2022-11-14T20:58:35.297Z,10.82
2022-11-14T21:01:02.114Z,10.10
2022-11-14T21:03:28.952Z,9.10
2022-11-14T21:05:56.475Z,11.00
2022-11-14T21:08:23.131Z,10.55
2022-11-14T21:10:57.277Z,11.05
2022-11-14T21:13:42.816Z,10.63
2022-11-14T21:16:12.597Z,11.70
2022-11-14T21:18:43.888Z,15.60
2022-11-14T21:21:16.714Z,10.48
2022-11-14T21:23:47.526Z,10.27
2022-11-14T21:26:19.811Z,10.52
2022-11-14T21:28:48.382Z,10.52
2022-11-14T21:31:19.118Z,9.88
2022-11-14T21:33:46.855Z,10.35
2022-11-14T21:39:01.191Z,12.02
2022-11-14T21:41:29.600Z,11.68
2022-11-14T21:43:59.739Z,12.85
2022-11-14T21:46:27.466Z,12.52
2022-11-14T21:48:55.682Z,11.75
2022-11-14T21:51:25.603Z,12.48
2022-11-14T21:53:58.922Z,13.45
2022-11-14T21:56:28.211Z,12.88
2022-11-14T21:59:14.570Z,13.05
2022-11-14T22:02:07.689Z,12.45
2022-11-14T22:04:34.752Z,18.73
2022-11-14T22:07:03.360Z,14.93
2022-11-14T22:12:21.263Z,12.48
2022-11-14T22:14:47.758Z,13.98
2022-11-14T22:17:14.307Z,13.68
2022-11-14T22:19:40.878Z,12.63
2022-11-14T22:22:08.113Z,16.83
2022-11-14T22:24:34.694Z,15.07
2022-11-14T22:27:01.130Z,13.10
2022-11-14T22:29:27.551Z,15.15
2022-11-14T22:31:55.460Z,14.43
2022-11-14T22:34:22.244Z,16.90
2022-11-14T22:36:48.743Z,19.27
2022-11-14T22:39:15.199Z,16.17
2022-11-14T22:41:41.782Z,13.63
2022-11-14T22:44:08.272Z,15.82
2022-11-14T22:46:34.770Z,17.05
2022-11-14T22:49:03.852Z,14.43
2022-11-14T22:51:30.742Z,14.38
2022-11-14T22:53:58.068Z,13.98
2022-11-14T22:56:29.301Z,14.70
2022-11-14T22:58:58.755Z,13.43
2022-11-14T23:01:27.841Z,13.55
2022-11-14T23:04:00.122Z,15.93
2022-11-14T23:06:27.822Z,14.40
2022-11-14T23:08:55.106Z,13.63
2022-11-14T23:11:24.054Z,13.18
2022-11-14T23:13:52.889Z,15.73
2022-11-14T23:16:21.932Z,13.07
2022-11-14T23:18:48.887Z,14.98
2022-11-14T23:21:21.230Z,13.95
2022-11-14T23:23:56.612Z,13.93
2022-11-14T23:26:24.522Z,12.75
2022-11-14T23:28:51.452Z,18.83
2022-11-14T23:31:20.817Z,13.48
2022-11-14T23:33:48.983Z,13.82
2022-11-14T23:36:16.223Z,13.07
2022-11-14T23:38:42.866Z,13.00
2022-11-14T23:41:18.368Z,12.48
2022-11-14T23:43:45.633Z,12.95
2022-11-14T23:46:12.552Z,14.25
2022-11-14T23:48:39.269Z,12.48
2022-11-14T23:51:06.101Z,14.85
2022-11-14T23:53:32.925Z,11.63
2022-11-14T23:56:01.378Z,14.88
2022-11-14T23:58:29.482Z,13.77
